createdAt,value
2019-03-15T00:01:05.110Z,987.92
2019-03-15T00:11:05.155Z,987.82
2019-03-15T00:21:05.133Z,987.88
2019-03-15T00:31:05.142Z,988.00
2019-03-15T00:41:05.093Z,988.14
2019-03-15T00:51:05.341Z,988.05
2019-03-15T01:01:05.430Z,988.00
2019-03-15T01:11:05.125Z,988.02
2019-03-15T01:21:05.082Z,987.98
2019-03-15T01:31:05.141Z,987.94
2019-03-15T01:41:05.105Z,987.94
2019-03-15T01:51:05.074Z,987.80
2019-03-15T02:01:05.076Z,987.70
2019-03-15T02:11:12.359Z,987.62
2019-03-15T02:21:05.206Z,987.49
2019-03-15T02:31:05.175Z,987.28
2019-03-15T02:41:05.450Z,987.12
2019-03-15T02:51:05.140Z,986.93
2019-03-15T03:01:05.171Z,986.69
2019-03-15T03:11:05.098Z,986.75
2019-03-15T03:21:05.048Z,986.73
2019-03-15T03:31:05.114Z,986.59
2019-03-15T03:41:05.089Z,986.57
2019-03-15T03:51:05.919Z,986.59
2019-03-15T04:01:07.569Z,986.62
2019-03-15T04:11:05.062Z,986.45
2019-03-15T04:21:05.075Z,986.33
2019-03-15T04:31:05.104Z,986.15
2019-03-15T04:41:05.051Z,986.05
2019-03-15T04:51:05.172Z,986.06
2019-03-15T05:01:05.057Z,986.15
2019-03-15T05:11:05.089Z,986.03
2019-03-15T05:21:05.031Z,985.91
2019-03-15T05:31:05.134Z,985.75
2019-03-15T05:41:05.093Z,985.66
2019-03-15T05:51:05.110Z,985.51
2019-03-15T06:01:05.487Z,985.40
2019-03-15T06:21:13.871Z,984.85
2019-03-15T06:31:13.776Z,984.76
2019-03-15T06:41:14.589Z,984.65
2019-03-15T06:51:13.470Z,984.52
2019-03-15T07:01:13.283Z,984.61
2019-03-15T07:11:15.738Z,984.39
2019-03-15T07:21:14.285Z,984.49
2019-03-15T07:31:13.453Z,984.54
2019-03-15T07:41:13.434Z,984.43
2019-03-15T07:51:13.395Z,984.51
2019-03-15T08:01:14.325Z,984.53
2019-03-15T08:11:13.338Z,984.57
2019-03-15T08:21:17.290Z,984.72
2019-03-15T08:31:14.381Z,984.80
2019-03-15T08:41:14.383Z,984.86
2019-03-15T08:51:14.436Z,984.91
2019-03-15T09:01:13.439Z,985.02
2019-03-15T09:11:13.504Z,985.12
2019-03-15T09:21:13.412Z,985.34
2019-03-15T09:31:13.770Z,985.34
2019-03-15T09:41:13.383Z,985.42
2019-03-15T09:51:13.575Z,985.41
2019-03-15T10:01:13.856Z,985.35
2019-03-15T10:11:14.970Z,985.51
2019-03-15T10:21:13.434Z,985.58
2019-03-15T10:31:13.427Z,985.73
2019-03-15T10:41:13.418Z,985.87
2019-03-15T10:51:13.325Z,985.81
2019-03-15T11:01:13.293Z,985.94
2019-03-15T11:11:13.475Z,986.36
2019-03-15T11:21:13.315Z,986.36
2019-03-15T11:31:14.314Z,986.48
2019-03-15T11:41:13.283Z,986.56
2019-03-15T11:51:16.128Z,986.46
2019-03-15T12:01:13.388Z,986.56
2019-03-15T12:11:13.382Z,986.66
2019-03-15T12:21:15.231Z,986.59
2019-03-15T12:31:13.581Z,986.61
2019-03-15T12:41:13.399Z,986.34
2019-03-15T12:51:13.428Z,986.38
2019-03-15T13:01:13.374Z,986.29
2019-03-15T13:11:13.364Z,986.20
2019-03-15T13:21:13.728Z,986.18
2019-03-15T13:31:14.374Z,986.56
2019-03-15T13:41:13.345Z,986.72
2019-03-15T13:51:14.115Z,986.39
2019-03-15T14:01:13.297Z,986.38
2019-03-15T14:11:13.232Z,986.63
2019-03-15T14:21:13.416Z,986.63
2019-03-15T14:31:13.395Z,986.38
2019-03-15T14:41:13.295Z,986.22
2019-03-15T14:51:13.117Z,986.32
2019-03-15T15:01:15.489Z,986.57
2019-03-15T15:11:13.325Z,986.39
2019-03-15T15:21:14.314Z,986.29
2019-03-15T15:31:13.354Z,986.46
2019-03-15T15:41:13.374Z,986.50
2019-03-15T15:51:13.569Z,986.38
2019-03-15T16:01:13.392Z,986.14
2019-03-15T16:11:13.578Z,986.31
2019-03-15T16:21:13.202Z,986.08
2019-03-15T16:31:13.364Z,986.15
2019-03-15T16:41:13.341Z,986.10
2019-03-15T16:51:19.545Z,986.13
2019-03-15T17:01:13.216Z,986.08
2019-03-15T17:11:13.205Z,986.49
2019-03-15T17:21:13.256Z,986.50
2019-03-15T17:31:13.142Z,986.62
2019-03-15T17:41:13.225Z,986.64
2019-03-15T17:51:13.204Z,986.95
2019-03-15T18:01:14.182Z,986.97
2019-03-15T18:11:13.299Z,986.88
2019-03-15T18:21:13.213Z,987.21
2019-03-15T18:31:13.126Z,987.33
2019-03-15T18:41:13.163Z,987.43
2019-03-15T18:51:13.157Z,987.38
2019-03-15T19:01:13.143Z,987.50
2019-03-15T19:11:13.247Z,987.65
2019-03-15T19:21:13.179Z,987.47
2019-03-15T19:31:13.186Z,987.77
2019-03-15T19:41:14.076Z,987.78
2019-03-15T19:51:13.204Z,988.12
2019-03-15T20:01:13.246Z,988.29
2019-03-15T20:11:13.241Z,988.39
2019-03-15T20:21:13.172Z,988.84
2019-03-15T20:31:13.227Z,988.94
2019-03-15T20:41:14.508Z,988.98
2019-03-15T20:51:13.246Z,988.86
2019-03-15T21:01:13.108Z,988.89
2019-03-15T21:11:13.237Z,989.02
2019-03-15T21:21:13.156Z,988.99
2019-03-15T21:31:13.353Z,988.92
2019-03-15T21:41:13.319Z,989.54
2019-03-15T21:51:13.193Z,989.78
2019-03-15T22:01:13.135Z,989.98
2019-03-15T22:11:21.085Z,990.05
2019-03-15T22:21:13.251Z,989.97
2019-03-15T22:31:16.926Z,990.08
2019-03-15T22:41:13.195Z,990.26
2019-03-15T22:51:13.171Z,990.45
2019-03-15T23:01:13.225Z,990.47
2019-03-15T23:11:13.161Z,990.61
2019-03-15T23:21:13.183Z,990.78
2019-03-15T23:31:13.174Z,990.82
2019-03-15T23:41:13.050Z,990.95
2019-03-15T23:51:13.230Z,990.95
